Terminal Aerodrome Forecast
Issued by NWS

Home | Current Version | Previous Version | Text Only | Print | Product List | Glossary On
Versions: 1 2 3 4 5 6 7 8 9 10 11 12 13
157
FTUS42 KTAE 250521
TAFABY
TAF
KABY 250521Z 2506/2606 00000KT P6SM SCT060
     FM251400 28007KT P6SM FEW250
     FM260000 24003KT P6SM SKC=

USA.gov is the U.S. government's official web portal to all federal, state and local government web resources and services.